createdAt,value
2022-12-18T00:00:29.469Z,51.259441
2022-12-18T00:01:29.547Z,51.259502
2022-12-18T00:02:29.490Z,51.259491
2022-12-18T00:08:15.685Z,51.259529
2022-12-18T00:09:15.670Z,51.259518
2022-12-18T00:20:13.750Z,51.259468
2022-12-18T00:21:13.735Z,51.259529
2022-12-18T00:22:13.738Z,51.259556
2022-12-18T00:23:13.716Z,51.259521
2022-12-18T00:24:13.715Z,51.259567
2022-12-18T00:25:13.725Z,51.259491
2022-12-18T00:26:13.691Z,51.259476
2022-12-18T00:27:13.691Z,51.259346
2022-12-18T00:28:13.678Z,51.259495
2022-12-18T00:29:13.668Z,51.259510
2022-12-18T00:30:13.662Z,51.259541
2022-12-18T00:31:13.704Z,51.259541
2022-12-18T00:32:13.651Z,51.259521
2022-12-18T00:33:13.624Z,51.259598
2022-12-18T00:34:13.607Z,51.259674
2022-12-18T00:35:13.608Z,51.259586
2022-12-18T00:36:13.611Z,51.259697
2022-12-18T00:37:19.724Z,51.259758
2022-12-18T00:38:15.587Z,51.259720
2022-12-18T00:39:13.566Z,51.259605
2022-12-18T00:40:13.566Z,51.259644
2022-12-18T00:41:13.548Z,51.259594
2022-12-18T00:42:13.558Z,51.259415
2022-12-18T00:43:13.536Z,51.259403
2022-12-18T00:44:13.524Z,51.259510
2022-12-18T00:45:13.537Z,51.259426
2022-12-18T00:46:13.592Z,51.259548
2022-12-18T00:47:13.520Z,51.259533
2022-12-18T00:48:13.490Z,51.259361
2022-12-18T00:49:13.490Z,51.259327
2022-12-18T01:22:59.465Z,51.258469
2022-12-18T01:23:59.445Z,51.258614
2022-12-18T01:24:59.426Z,51.258614
2022-12-18T01:25:59.416Z,51.258900
2022-12-18T01:26:59.429Z,51.258900
2022-12-18T01:27:59.401Z,51.258900
2022-12-18T01:28:59.398Z,51.258900
2022-12-18T01:29:59.386Z,51.258900
2022-12-18T01:30:59.362Z,51.258900
2022-12-18T01:31:59.420Z,51.259483
2022-12-18T01:32:59.357Z,51.259491
2022-12-18T01:33:59.355Z,51.259483
2022-12-18T01:34:59.339Z,51.259518
2022-12-18T01:35:59.334Z,51.259647
2022-12-18T01:36:59.343Z,51.259624
2022-12-18T01:37:59.321Z,51.259506
2022-12-18T01:38:59.301Z,51.259483
2022-12-18T01:39:59.296Z,51.259525
2022-12-18T01:40:59.286Z,51.259521
2022-12-18T01:41:59.313Z,51.259487
2022-12-18T02:16:11.568Z,51.259224
2022-12-18T02:17:11.526Z,51.259445
2022-12-18T02:18:11.505Z,51.259594
2022-12-18T02:19:11.488Z,51.259750
2022-12-18T02:20:11.508Z,51.259708
2022-12-18T02:21:11.488Z,51.259594
2022-12-18T02:22:11.483Z,51.259476
2022-12-18T02:23:11.451Z,51.259621
2022-12-18T02:24:11.450Z,51.259666
2022-12-18T02:25:11.434Z,51.259506
2022-12-18T02:26:11.442Z,51.259521
2022-12-18T02:27:11.427Z,51.259624
2022-12-18T02:28:11.409Z,51.259552
2022-12-18T02:29:11.500Z,51.259563
2022-12-18T02:30:11.404Z,51.259453
2022-12-18T02:31:11.439Z,51.259388
2022-12-18T03:59:03.933Z,51.259533
2022-12-18T04:00:03.925Z,51.259502
2022-12-18T04:01:03.920Z,51.259491
2022-12-18T04:02:04.133Z,51.259384
2022-12-18T04:03:04.112Z,51.259445
2022-12-18T04:04:03.919Z,51.259384
2022-12-18T04:05:03.876Z,51.259434
2022-12-18T04:06:03.867Z,51.259483
2022-12-18T04:07:03.855Z,51.259392
2022-12-18T04:08:03.861Z,51.259422
2022-12-18T04:09:03.851Z,51.259335
2022-12-18T04:10:03.836Z,51.259495
2022-12-18T04:11:03.827Z,51.259380
2022-12-18T04:12:03.812Z,51.259510
2022-12-18T04:13:03.816Z,51.259506
2022-12-18T04:14:07.183Z,51.259449
2022-12-18T04:15:04.792Z,51.259491
2022-12-18T04:16:03.824Z,51.259567
2022-12-18T04:17:03.774Z,51.259495
2022-12-18T04:18:03.772Z,51.259441
2022-12-18T04:19:05.503Z,51.259418
2022-12-18T04:20:03.751Z,51.259407
2022-12-18T05:31:42.006Z,51.259476
2022-12-18T05:32:41.943Z,51.259518
2022-12-18T05:33:42.251Z,51.259590
2022-12-18T05:34:41.909Z,51.259541
2022-12-18T05:35:41.899Z,51.259537
2022-12-18T05:36:42.904Z,51.259552
2022-12-18T05:37:43.497Z,51.259525
2022-12-18T05:38:42.881Z,51.259552
2022-12-18T05:39:41.874Z,51.259533
2022-12-18T05:40:41.859Z,51.259583
2022-12-18T05:41:41.864Z,51.259567
2022-12-18T05:42:41.838Z,51.259579
2022-12-18T05:43:42.498Z,51.259571
2022-12-18T05:44:41.830Z,51.259556
2022-12-18T05:45:41.823Z,51.259624
2022-12-18T05:46:41.864Z,51.259594
2022-12-18T05:47:41.809Z,51.259571
2022-12-18T05:48:41.811Z,51.259605
2022-12-18T05:49:41.781Z,51.259541
2022-12-18T05:50:41.772Z,51.259575
2022-12-18T05:51:41.767Z,51.259544
2022-12-18T05:52:41.759Z,51.259575
2022-12-18T05:53:42.106Z,51.259552
2022-12-18T05:54:41.744Z,51.259495
2022-12-18T05:55:41.736Z,51.259518
2022-12-18T05:56:47.040Z,51.259468
2022-12-18T05:57:43.713Z,51.259605
2022-12-18T05:58:41.712Z,51.259510
2022-12-18T05:59:41.698Z,51.259537
2022-12-18T06:00:41.689Z,51.259571
2022-12-18T06:01:41.816Z,51.259571
2022-12-18T06:02:41.748Z,51.259609
2022-12-18T06:03:42.142Z,51.259628
2022-12-18T06:04:41.645Z,51.259563
2022-12-18T06:05:41.645Z,51.259510
2022-12-18T06:06:41.637Z,51.259506
2022-12-18T06:07:41.620Z,51.259483
2022-12-18T06:08:46.164Z,51.259487
2022-12-18T06:09:43.702Z,51.259514
2022-12-18T06:10:41.595Z,51.259537
2022-12-18T06:11:41.588Z,51.259480
2022-12-18T06:12:41.582Z,51.259537
2022-12-18T06:14:13.498Z,51.259499
2022-12-18T06:14:41.569Z,51.259544
2022-12-18T06:15:41.565Z,51.259567
2022-12-18T06:16:41.574Z,51.259556
2022-12-18T06:17:41.547Z,51.259567
2022-12-18T06:18:41.547Z,51.259579
2022-12-18T06:19:41.533Z,51.259525
2022-12-18T06:20:41.519Z,51.259617
2022-12-18T06:21:41.496Z,51.259636
2022-12-18T06:22:41.499Z,51.259609
2022-12-18T06:23:41.846Z,51.259563
2022-12-18T06:24:41.490Z,51.259548
2022-12-18T06:25:41.566Z,51.259476
2022-12-18T06:26:41.470Z,51.259533
2022-12-18T06:27:41.446Z,51.259472
2022-12-18T06:28:41.467Z,51.259590
2022-12-18T06:29:41.432Z,51.259586
2022-12-18T06:30:41.432Z,51.259552
2022-12-18T06:31:41.478Z,51.259575
2022-12-18T06:32:41.410Z,51.259510
2022-12-18T06:33:41.827Z,51.259636
2022-12-18T06:34:41.437Z,51.259666
2022-12-18T06:35:41.388Z,51.259624
2022-12-18T06:36:41.380Z,51.259686
2022-12-18T06:37:41.363Z,51.259621
2022-12-18T06:38:41.719Z,51.259609
2022-12-18T06:39:41.355Z,51.259617
2022-12-18T06:40:41.349Z,51.259525
2022-12-18T06:41:41.421Z,51.259613
2022-12-18T06:42:41.326Z,51.259617
2022-12-18T06:43:41.751Z,51.259647
2022-12-18T06:44:41.308Z,51.259651
2022-12-18T06:45:41.379Z,51.259636
2022-12-18T06:46:41.296Z,51.259579
2022-12-18T06:47:41.286Z,51.259556
2022-12-18T07:19:27.308Z,51.258556
2022-12-18T07:20:27.281Z,51.259388
2022-12-18T07:21:27.272Z,51.259068
2022-12-18T07:22:27.250Z,51.259193
2022-12-18T07:23:27.245Z,51.259251
2022-12-18T07:24:27.262Z,51.259430
2022-12-18T07:25:27.230Z,51.259556
2022-12-18T07:26:27.214Z,51.259541
2022-12-18T07:27:27.204Z,51.259521
2022-12-18T07:28:27.203Z,51.259445
2022-12-18T07:29:27.293Z,51.259247
2022-12-18T07:30:27.171Z,51.259113
2022-12-18T07:31:27.270Z,51.259171
2022-12-18T07:32:27.172Z,51.259293
2022-12-18T07:33:27.176Z,51.259430
2022-12-18T07:34:27.160Z,51.259621
2022-12-18T07:35:27.158Z,51.259472
2022-12-18T07:36:27.138Z,51.259491
2022-12-18T07:37:27.210Z,51.259533
2022-12-18T07:38:27.105Z,51.259518
2022-12-18T07:39:27.123Z,51.259552
2022-12-18T07:40:27.107Z,51.259560
2022-12-18T07:41:27.091Z,51.259594
2022-12-18T07:42:27.071Z,51.259640
2022-12-18T07:43:27.074Z,51.259556
2022-12-18T07:44:27.110Z,51.259476
2022-12-18T07:45:27.051Z,51.259468
2022-12-18T07:46:27.124Z,51.259502
2022-12-18T07:47:27.051Z,51.259506
2022-12-18T07:48:27.050Z,51.259502
2022-12-18T07:49:27.053Z,51.259441
2022-12-18T07:50:27.016Z,51.259521
